Hlavní strana
METAR-TAF:

METAR-TAF

Letiště :

Letiště Piešťany

Piešťany, Slovensko

zeměpisná šířka: 48-37-30N, zeměpisná délka: 017-49-43E, výška: 163 m

Aktuální stav počasí

Zpráva byla vytvořena před 25 minutami, v 15:30 UTC
Severozápadní vítr 3 kt
Teplota 7°C
Vlhkost vzduchu 66%
Tlak 1032 hPa
Viditelnost 10 km a více
Žádná oblačnost pod 1500 m, nevyskytují se cumulonimby.

METAR: LZPP 161530Z 32003KT CAVOK 07/01 Q1032

Čas: 16:55 (15:55 UTC)

Předpověď počasí

Zpráva byla vytvořena před 1 hodinou a 55 minutami, v 14:00 UTC
Předpověď platná od 16 v 15 UTC do 17 v 00 UTC
Severoseverovýchodní vítr 5 kt
Viditelnost 10 km a více
Žádná oblačnost pod 1500 m, nevyskytují se cumulonimby.

TAF: LZPP 161400Z 1615/1700 03005KT CAVOK

Stav a předpovědi počasí z více než 4 000 letišť (zprávy METAR a TAF).

Červené a žluté tečky na mapě představují dostupné meteorologické stanice.

Když kurzor umístíte na tečku, zobrazí se název stanice.

Pak kliknutím zobrazíte stav a předpověď počasí.

Chcete-li změnit mapu, kliknutím na zelené tlačítko se znaménkem +mapu přiblížíte, kliknutím na zelené tlačítko se znaménkem – mapu oddálíte a kliknutím na zelené šipky přejdete na sousední mapy.


METAR-TAF: